createdAt,value
2024-01-15T07:51:10.096Z,40.00
2024-01-15T07:53:39.342Z,40.90
2024-01-15T07:56:07.837Z,40.50
2024-01-15T07:58:36.529Z,38.30
2024-01-15T08:01:05.885Z,39.20
2024-01-15T08:03:34.763Z,39.80
2024-01-15T08:06:07.052Z,39.50
2024-01-15T08:08:35.621Z,38.60
2024-01-15T08:11:04.284Z,39.20
2024-01-15T08:13:32.794Z,38.40
2024-01-15T08:16:01.345Z,38.60
2024-01-15T08:18:30.154Z,36.80
2024-01-15T08:20:58.956Z,36.70
2024-01-15T08:23:32.721Z,38.80
2024-01-15T08:26:03.528Z,35.70
2024-01-15T08:28:32.529Z,35.40
2024-01-15T08:31:02.034Z,34.50
2024-01-15T08:33:31.032Z,35.00
2024-01-15T08:35:59.755Z,33.60
2024-01-15T08:38:28.459Z,34.70
2024-01-15T08:41:00.188Z,33.40
2024-01-15T08:43:29.190Z,31.80
2024-01-15T08:45:58.431Z,34.50
2024-01-15T08:48:28.808Z,33.20
2024-01-15T08:50:58.301Z,33.00
2024-01-15T08:53:29.391Z,39.50
2024-01-15T08:55:57.991Z,47.90
2024-01-15T08:58:26.824Z,47.40
2024-01-15T09:00:57.926Z,46.20
2024-01-15T09:03:26.953Z,49.20
2024-01-15T09:05:56.687Z,48.50
2024-01-15T09:08:26.144Z,44.60
2024-01-15T09:10:54.820Z,41.70
2024-01-15T09:13:26.440Z,43.20
2024-01-15T09:15:55.251Z,41.30
2024-01-15T09:18:26.744Z,44.60
2024-01-15T09:20:56.008Z,45.80
2024-01-15T09:23:29.827Z,45.20
2024-01-15T09:25:58.762Z,42.90
2024-01-15T09:28:29.765Z,43.50
2024-01-15T09:30:58.426Z,42.90
2024-01-15T09:33:28.484Z,43.40
2024-01-15T09:36:05.361Z,44.40
2024-01-15T09:38:34.050Z,40.80
2024-01-15T09:41:02.657Z,44.00
2024-01-15T09:43:31.614Z,47.40
2024-01-15T09:46:00.467Z,42.70
2024-01-15T09:48:29.400Z,42.30
2024-01-15T09:51:02.126Z,42.80
2024-01-15T09:53:31.374Z,43.60
2024-01-15T09:56:00.113Z,42.70
2024-01-15T09:58:31.880Z,42.70
2024-01-15T10:01:05.093Z,42.00
2024-01-15T10:03:35.850Z,43.10
2024-01-15T10:06:09.215Z,41.40
2024-01-15T10:08:41.454Z,38.40
2024-01-15T10:11:10.092Z,36.70
2024-01-15T10:13:41.938Z,37.80
2024-01-15T10:16:10.706Z,40.90
2024-01-15T10:18:41.020Z,41.70
2024-01-15T10:21:10.877Z,38.90
2024-01-15T10:23:39.771Z,40.10
2024-01-15T10:26:08.846Z,38.70
2024-01-15T10:31:39.831Z,38.70
2024-01-15T10:34:17.296Z,34.60
2024-01-15T10:36:58.862Z,33.70
2024-01-15T10:39:31.601Z,29.10
2024-01-15T10:42:00.474Z,24.60
2024-01-15T10:44:32.540Z,23.40
2024-01-15T10:47:02.180Z,22.90
2024-01-15T10:49:35.810Z,20.80
2024-01-15T10:52:05.529Z,19.90
2024-01-15T10:54:38.079Z,19.60
2024-01-15T10:57:11.168Z,20.30
2024-01-15T10:59:40.824Z,16.40
2024-01-15T11:02:10.110Z,18.60
2024-01-15T11:04:39.149Z,19.00
2024-01-15T11:07:09.061Z,16.90
2024-01-15T11:09:38.529Z,17.60
2024-01-15T11:12:15.312Z,19.90
2024-01-15T11:14:48.815Z,18.40
2024-01-15T11:17:19.950Z,18.00
2024-01-15T11:19:54.657Z,17.50
2024-01-15T11:22:35.480Z,17.30
2024-01-15T11:25:24.626Z,17.40
2024-01-15T11:27:56.719Z,17.70
2024-01-15T11:30:29.005Z,17.20
2024-01-15T11:32:58.089Z,19.30
2024-01-15T11:35:52.510Z,17.30
2024-01-15T11:38:33.279Z,19.00
2024-01-15T11:41:03.141Z,19.30
2024-01-15T11:43:34.379Z,18.50
2024-01-15T11:46:05.404Z,19.10
2024-01-15T11:48:46.108Z,21.10
2024-01-15T11:51:23.192Z,21.60
2024-01-15T11:53:59.244Z,20.80
2024-01-15T11:56:28.251Z,22.30
2024-01-15T11:58:57.881Z,22.30
2024-01-15T12:01:26.836Z,21.80
2024-01-15T12:04:00.243Z,22.40
2024-01-15T12:06:29.310Z,23.20
2024-01-15T12:09:10.520Z,24.30
2024-01-15T12:11:45.363Z,24.70
2024-01-15T12:14:17.676Z,23.20
2024-01-15T12:16:46.342Z,22.20
2024-01-15T12:19:16.809Z,21.90
2024-01-15T12:21:46.401Z,22.90
2024-01-15T12:24:15.046Z,22.60
2024-01-15T12:26:43.613Z,21.30
2024-01-15T12:29:13.043Z,21.80
2024-01-15T12:31:41.732Z,22.90
2024-01-15T12:34:10.543Z,24.80
2024-01-15T12:36:39.109Z,25.40
2024-01-15T12:39:12.988Z,25.80
2024-01-15T12:41:41.602Z,25.60
2024-01-15T12:44:10.230Z,24.50
2024-01-15T12:46:38.873Z,21.10
2024-01-15T12:49:09.790Z,21.60
2024-01-15T12:51:43.083Z,23.80
2024-01-15T12:54:11.732Z,27.20
2024-01-15T12:56:40.474Z,23.70
2024-01-15T12:59:09.625Z,24.50
2024-01-15T13:01:38.491Z,22.20
2024-01-15T13:04:10.262Z,22.00
2024-01-15T13:06:38.921Z,25.20
2024-01-15T13:09:07.538Z,38.00
2024-01-15T13:11:36.076Z,31.10
2024-01-15T13:14:04.781Z,28.20
2024-01-15T13:16:33.387Z,76.70
2024-01-15T13:19:02.064Z,25.40
2024-01-15T13:21:31.714Z,26.00
2024-01-15T13:24:00.321Z,22.60
2024-01-15T13:26:29.183Z,23.70
2024-01-15T13:28:57.727Z,24.20
2024-01-15T13:31:26.426Z,25.40
2024-01-15T13:33:57.403Z,24.10
2024-01-15T13:36:27.173Z,24.10
2024-01-15T13:38:56.115Z,25.60
2024-01-15T13:41:28.666Z,25.20
2024-01-15T13:46:30.671Z,27.10
2024-01-15T13:48:59.709Z,27.50
2024-01-15T13:51:28.441Z,25.90
2024-01-15T13:53:57.003Z,27.40
2024-01-15T13:56:25.592Z,28.70
2024-01-15T13:58:54.187Z,27.10
2024-01-15T14:01:22.891Z,27.10
2024-01-15T14:03:51.676Z,29.60
2024-01-15T14:06:20.356Z,28.70
2024-01-15T14:08:48.996Z,28.50
2024-01-15T14:11:17.582Z,27.00
2024-01-15T14:13:46.890Z,26.30
2024-01-15T14:16:18.446Z,26.90
2024-01-15T14:18:54.520Z,26.10
2024-01-15T14:21:23.289Z,27.40
2024-01-15T14:23:52.003Z,27.90
2024-01-15T14:26:20.572Z,28.70
2024-01-15T14:28:51.898Z,35.70
2024-01-15T14:31:22.021Z,35.60
2024-01-15T14:33:50.711Z,36.00
2024-01-15T14:36:19.537Z,35.70
2024-01-15T14:38:50.064Z,36.00
2024-01-15T14:41:18.654Z,37.60
2024-01-15T14:43:49.570Z,36.50
2024-01-15T14:46:18.322Z,37.00
2024-01-15T14:48:47.063Z,38.00
2024-01-15T14:51:15.803Z,34.60
2024-01-15T14:53:45.388Z,29.80
2024-01-15T14:56:17.459Z,26.00
2024-01-15T14:58:47.194Z,24.80
2024-01-15T15:01:16.613Z,21.60
2024-01-15T15:03:45.817Z,23.20
2024-01-15T15:06:19.776Z,19.00
2024-01-15T15:08:51.207Z,19.60
2024-01-15T15:11:19.794Z,19.90
2024-01-15T15:13:50.791Z,19.10
2024-01-15T15:16:19.526Z,19.70
2024-01-15T15:18:48.731Z,22.20
2024-01-15T15:21:17.922Z,19.00
2024-01-15T15:23:46.705Z,19.10
2024-01-15T15:26:15.702Z,19.00
2024-01-15T15:28:44.250Z,17.20
2024-01-15T15:31:13.444Z,16.50
2024-01-15T15:33:43.235Z,15.90
2024-01-15T15:36:15.154Z,15.80
2024-01-15T15:38:43.786Z,17.30
2024-01-15T15:41:13.922Z,17.20
2024-01-15T15:43:42.765Z,17.60
2024-01-15T15:46:11.396Z,19.70
2024-01-15T15:48:40.242Z,19.70
2024-01-15T15:51:09.160Z,21.10
2024-01-15T15:53:37.913Z,22.90
2024-01-15T15:56:08.800Z,22.90
2024-01-15T15:58:41.607Z,21.70
2024-01-15T16:01:10.404Z,19.10
2024-01-15T16:03:39.665Z,21.30
2024-01-15T16:06:08.637Z,20.80
2024-01-15T16:08:40.047Z,20.50
2024-01-15T16:11:09.013Z,18.20
2024-01-15T16:13:39.848Z,18.20
2024-01-15T16:23:10.092Z,18.50
2024-01-15T16:23:23.282Z,18.70
2024-01-15T16:23:38.640Z,17.10
2024-01-15T16:24:51.220Z,17.30
2024-01-15T16:27:24.657Z,18.10
2024-01-15T16:29:53.736Z,18.10
2024-01-15T16:32:22.371Z,19.00
2024-01-15T16:34:51.210Z,19.50
2024-01-15T16:37:19.872Z,21.30
2024-01-15T16:39:51.951Z,18.80
2024-01-15T16:42:22.059Z,19.30
2024-01-15T16:44:51.123Z,18.40
2024-01-15T16:47:22.304Z,19.20
2024-01-15T16:49:52.304Z,18.70
2024-01-15T16:52:21.235Z,20.20
2024-01-15T16:54:49.959Z,20.60
2024-01-15T16:57:18.735Z,20.60
2024-01-15T16:59:47.948Z,21.00
2024-01-15T17:02:16.694Z,20.70
2024-01-15T17:04:48.438Z,19.20
2024-01-15T17:07:18.065Z,20.50
2024-01-15T17:09:46.608Z,21.60
2024-01-15T17:12:15.174Z,19.60
2024-01-15T17:14:43.860Z,22.30
2024-01-15T17:17:12.583Z,22.20
2024-01-15T17:19:45.479Z,21.30
2024-01-15T17:22:15.505Z,21.60
2024-01-15T17:24:44.040Z,22.30
2024-01-15T17:27:12.611Z,22.50
2024-01-15T17:29:41.922Z,22.90
2024-01-15T17:32:10.778Z,24.10
2024-01-15T17:34:40.131Z,24.20
2024-01-15T17:37:08.788Z,22.90
2024-01-15T17:39:37.801Z,26.50
2024-01-15T17:42:09.558Z,23.30
2024-01-15T17:44:38.190Z,24.40
2024-01-15T17:47:07.103Z,23.60
2024-01-15T17:49:35.727Z,26.10
2024-01-15T17:52:05.295Z,25.70
2024-01-15T17:54:34.283Z,24.60
2024-01-15T17:57:03.023Z,22.40
2024-01-15T17:59:31.963Z,22.70
2024-01-15T18:02:01.394Z,21.80
2024-01-15T18:04:30.032Z,22.70
2024-01-15T18:06:58.556Z,24.30
2024-01-15T18:09:27.027Z,23.80
2024-01-15T18:12:00.219Z,24.30
2024-01-15T18:14:29.858Z,29.10
2024-01-15T18:16:58.521Z,32.50
2024-01-15T18:19:27.140Z,38.00
2024-01-15T18:21:55.673Z,33.30
2024-01-15T18:24:26.481Z,33.40
2024-01-15T18:26:55.096Z,32.70
2024-01-15T18:29:25.265Z,33.80
2024-01-15T18:31:54.053Z,27.10
2024-01-15T18:34:22.584Z,25.00
2024-01-15T18:36:52.719Z,14.30
2024-01-15T18:39:21.161Z,9.30
2024-01-15T18:41:49.674Z,7.50
2024-01-15T18:44:18.421Z,5.60
2024-01-15T18:46:47.156Z,4.10
2024-01-15T18:49:17.876Z,2.60
2024-01-15T18:51:47.406Z,1.80
2024-01-15T18:54:16.644Z,1.70
2024-01-15T18:56:45.798Z,1.70
2024-01-15T18:59:14.583Z,1.20
2024-01-15T19:01:44.574Z,1.40
2024-01-15T19:04:13.559Z,1.20
2024-01-15T19:06:43.172Z,1.00
2024-01-15T19:09:12.716Z,1.00
2024-01-15T19:11:45.934Z,0.90
2024-01-15T19:14:17.694Z,1.20
2024-01-15T19:16:47.727Z,1.00
2024-01-15T19:19:16.713Z,1.10
2024-01-15T19:21:47.518Z,1.00
2024-01-15T19:24:17.398Z,1.00
2024-01-15T19:26:46.621Z,1.00
2024-01-15T19:29:17.769Z,1.30
2024-01-15T19:31:46.224Z,1.20
2024-01-15T19:34:14.933Z,1.40
2024-01-15T19:36:45.867Z,1.80
2024-01-15T19:39:14.359Z,1.90
2024-01-15T19:41:43.620Z,1.60
2024-01-15T19:44:12.082Z,1.30
2024-01-15T19:46:41.458Z,1.20
2024-01-15T19:49:15.610Z,1.30
2024-01-15T19:51:44.821Z,1.10
2024-01-15T19:54:13.632Z,1.20
2024-01-15T19:56:42.311Z,1.20
2024-01-15T19:59:11.048Z,1.80
2024-01-15T20:01:41.977Z,1.60
2024-01-15T20:04:14.495Z,1.50
2024-01-15T20:06:43.440Z,1.50
2024-01-15T20:09:18.037Z,1.40
2024-01-15T20:11:47.194Z,1.20
2024-01-15T20:14:20.443Z,1.50
2024-01-15T20:16:49.057Z,1.40
2024-01-15T20:19:28.674Z,1.20
2024-01-15T20:21:57.748Z,1.30
2024-01-15T20:24:27.597Z,1.10
2024-01-15T20:26:59.029Z,1.30
2024-01-15T20:29:30.264Z,1.20
2024-01-15T20:31:59.341Z,1.10
2024-01-15T20:34:28.617Z,1.10
2024-01-15T20:36:58.272Z,1.50
2024-01-15T20:39:27.140Z,1.40
2024-01-15T20:41:55.944Z,1.90
2024-01-15T20:44:25.932Z,7.60
2024-01-15T20:46:56.937Z,5.20
2024-01-15T20:49:27.316Z,2.80
2024-01-15T20:51:55.918Z,2.50
2024-01-15T20:54:24.544Z,3.00
2024-01-15T20:56:53.241Z,3.30
2024-01-15T20:59:21.882Z,3.70
2024-01-15T21:01:53.305Z,2.70
2024-01-15T21:04:23.441Z,2.30
2024-01-15T21:06:57.397Z,2.70
2024-01-15T21:09:29.112Z,3.40
2024-01-15T21:11:57.725Z,3.20
2024-01-15T21:14:26.338Z,2.50
2024-01-15T21:16:54.872Z,2.30
2024-01-15T21:19:24.434Z,2.50
2024-01-15T21:21:58.226Z,3.00
2024-01-15T21:24:29.183Z,2.60
2024-01-15T21:27:00.977Z,3.40
2024-01-15T21:29:29.624Z,3.00
2024-01-15T21:32:04.055Z,3.20
2024-01-15T21:34:37.352Z,3.30
2024-01-15T21:37:08.878Z,2.80
2024-01-15T21:39:38.592Z,3.60
2024-01-15T21:42:07.386Z,3.60
2024-01-15T21:44:39.177Z,3.50
2024-01-15T21:47:08.478Z,2.90
2024-01-15T21:49:40.150Z,3.00
2024-01-15T21:52:11.575Z,4.00
2024-01-15T21:54:40.140Z,3.40
2024-01-15T21:57:09.137Z,2.90
2024-01-15T21:59:38.043Z,2.70
2024-01-15T22:02:10.099Z,2.30
2024-01-15T22:04:38.976Z,2.10
2024-01-15T22:07:10.676Z,2.50
2024-01-15T22:09:42.065Z,2.90
2024-01-15T22:12:11.429Z,2.60
2024-01-15T22:14:40.125Z,2.40
2024-01-15T22:17:08.721Z,2.50
2024-01-15T22:19:37.402Z,2.90
2024-01-15T22:22:10.516Z,3.20
2024-01-15T22:24:39.864Z,6.90
2024-01-15T22:27:08.550Z,3.70
2024-01-15T22:29:37.752Z,3.80
2024-01-15T22:32:06.584Z,3.30
2024-01-15T22:34:35.474Z,3.60
2024-01-15T22:37:06.026Z,3.20
2024-01-15T22:39:34.733Z,3.00
2024-01-15T22:42:03.355Z,3.40
2024-01-15T22:44:31.993Z,2.80
2024-01-15T22:47:00.851Z,3.10
2024-01-15T22:49:29.569Z,3.00
2024-01-15T22:51:58.259Z,3.10
2024-01-15T22:54:27.110Z,3.00
2024-01-15T22:56:55.819Z,2.30
2024-01-15T22:59:26.818Z,2.10
2024-01-15T23:01:55.349Z,2.00
2024-01-15T23:04:23.914Z,1.70
2024-01-15T23:06:55.001Z,1.60
2024-01-15T23:09:27.254Z,1.70
2024-01-15T23:11:55.783Z,1.70
2024-01-15T23:14:24.328Z,1.90
2024-01-15T23:16:55.642Z,1.40
2024-01-15T23:19:24.265Z,1.70
2024-01-15T23:21:53.560Z,1.50
2024-01-15T23:24:22.094Z,1.80
2024-01-15T23:26:55.328Z,1.50
2024-01-15T23:29:23.995Z,1.90
2024-01-15T23:31:52.597Z,1.50
2024-01-15T23:34:21.213Z,1.70
2024-01-15T23:36:53.583Z,1.70
2024-01-15T23:39:22.998Z,1.50
2024-01-15T23:41:53.051Z,1.90
2024-01-15T23:44:21.734Z,2.00
2024-01-15T23:46:53.520Z,1.60
2024-01-15T23:49:24.565Z,2.00
2024-01-15T23:51:54.061Z,1.90
2024-01-15T23:54:22.608Z,2.00
2024-01-15T23:56:53.429Z,2.90
2024-01-15T23:59:22.163Z,2.70
